This demonstration page uses our WeatherBlox Daily Observations layout. Learn more.

41.55636, -103.73856

Hourly Observations for July 19, 2016

Temp ( °F °C ) Dew Point ( °F °C ) Humidity (%) Winds ( mph kmh ) Pressure ( in mb ) Visibility ( mi km ) Precip ( " mm )
12:53 am 00:53 Clear 64 17.8 61 16.1 90 90 E 5 7 30 1016 10 16.0934 0 0
1:53 am 01:53 Clear 63 17.2 60 15.6 90 90 E 7 11 29.97 1015 10 16.0934 0 0
2:53 am 02:53 Clear 62 16.7 60 15.6 93 93 E 6 9 29.98 1015 10 16.0934 0 0
3:53 am 03:53 Partly Cloudy 63 17.2 60 15.6 90 90 ESE 6 9 30 1016 10 16.0934 0 0
4:53 am 04:53 Clear 61 16.1 59 15 93 93 E 7 11 30.03 1017 9 14.48406 0 0
5:53 am 05:53 Sunny 63 17.2 60 15.6 90 90 ESE 13 20 30.02 1017 9 14.48406 0 0
6:53 am 06:53 Sunny 64 17.8 60 15.6 87 87 ESE 10 17 30.03 1017 10 16.0934 0 0
7:53 am 07:53 Sunny 70 21.1 60 15.6 71 71 SE 10 17 30.01 1016 10 16.0934 0 0
8:53 am 08:53 Sunny 77 25 60 15.6 56 56 ESE 6 9 30 1016 10 16.0934 0 0
9:53 am 09:53 Sunny 84 28.9 60 15.6 44 44 SE 7 11 29.97 1015 10 16.0934 0 0
10:53 am 10:53 Sunny 88 31.1 60 15.6 39 39 VRB 3 6 29.95 1014 10 16.0934 0 0
11:53 am 11:53 Sunny 90 32.2 56 13.3 32 32 VRB 3 6 29.94 1014 10 16.0934 0 0
12:53 pm 12:53 Sunny 94 34.4 56 13.3 28 28 NNW 8 13 29.92 1013 10 16.0934 0 0
1:53 pm 13:53 Sunny 93 33.9 53 11.7 26 26 VRB 3 6 29.91 1013 10 16.0934 0 0
2:53 pm 14:53 Sunny 96 35.6 53 11.7 23 23 VRB 5 7 29.9 1012 10 16.0934 0 0
3:53 pm 15:53 Sunny 97 36.1 56 13.3 25 25 E 9 15 29.87 1011 10 16.0934 0 0
4:53 pm 16:53 Sunny 96 35.6 48 8.9 19 19 SW 3 6 29.86 1011 10 16.0934 0 0
5:53 pm 17:53 Sunny 93 33.9 60 15.6 33 33 E 5 7 29.85 1011 10 16.0934 0 0
6:53 pm 18:53 Sunny 91 32.8 62 16.7 38 38 ESE 5 7 29.84 1011 10 16.0934 0 0
7:53 pm 19:53 Sunny 88 31.1 62 16.7 42 42 SSW 5 7 29.85 1011 10 16.0934 0 0
8:53 pm 20:53 Clear 81 27.2 61 16.1 51 51 E 3 6 29.86 1011 10 16.0934 0 0
9:53 pm 21:53 Clear 80 26.7 56 13.3 44 44 S 5 7 29.86 1011 10 16.0934 0 0
10:53 pm 22:53 Clear 73 23 61 16 65 65 E 7 11 29.8 1009 10 16.0934 0 0
11:53 pm 23:53 Clear 75 23.9 61 16.1 62 62 SSE 6 9 29.9 1012 10 16.0934 0 0

Powered by AerisWeather